sensor_id;sensor_type;location;lat;lon;timestamp;temperature;humidity
7290;DHT22;63176;52.678;13.250;2022-12-10T00:00:39;0.20;99.90
7290;DHT22;63176;52.678;13.250;2022-12-10T00:03:04;0.40;99.90
7290;DHT22;63176;52.678;13.250;2022-12-10T00:05:33;0.40;99.90
7290;DHT22;63176;52.678;13.250;2022-12-10T00:07:59;0.40;99.90
7290;DHT22;63176;52.678;13.250;2022-12-10T00:10:24;0.20;99.90
7290;DHT22;63176;52.678;13.250;2022-12-10T00:12:50;0.20;99.90
7290;DHT22;63176;52.678;13.250;2022-12-10T00:15:16;0.10;99.90
7290;DHT22;63176;52.678;13.250;2022-12-10T00:17:42;0.10;99.90
7290;DHT22;63176;52.678;13.250;2022-12-10T00:20:08;0.10;99.90
7290;DHT22;63176;52.678;13.250;2022-12-10T00:22:34;0.10;99.90
7290;DHT22;63176;52.678;13.250;2022-12-10T00:25:00;0.20;99.90
7290;DHT22;63176;52.678;13.250;2022-12-10T00:27:25;0.10;99.90
7290;DHT22;63176;52.678;13.250;2022-12-10T00:29:51;0.10;99.90
7290;DHT22;63176;52.678;13.250;2022-12-10T00:32:16;0.30;99.90
7290;DHT22;63176;52.678;13.250;2022-12-10T00:34:42;0.10;99.90
7290;DHT22;63176;52.678;13.250;2022-12-10T00:37:07;0.10;99.90
7290;DHT22;63176;52.678;13.250;2022-12-10T00:39:33;0.10;99.90
7290;DHT22;63176;52.678;13.250;2022-12-10T00:41:59;0.10;99.90
7290;DHT22;63176;52.678;13.250;2022-12-10T00:44:24;0.10;99.90
7290;DHT22;63176;52.678;13.250;2022-12-10T00:46:50;0.30;99.90
7290;DHT22;63176;52.678;13.250;2022-12-10T00:49:16;0.20;99.90
7290;DHT22;63176;52.678;13.250;2022-12-10T00:51:41;0.10;99.90
7290;DHT22;63176;52.678;13.250;2022-12-10T00:54:07;0.10;99.90
7290;DHT22;63176;52.678;13.250;2022-12-10T00:56:34;0.10;99.90
7290;DHT22;63176;52.678;13.250;2022-12-10T00:59:00;0.10;99.90
7290;DHT22;63176;52.678;13.250;2022-12-10T01:01:30;0.10;99.90
7290;DHT22;63176;52.678;13.250;2022-12-10T01:03:59;0.10;99.90
7290;DHT22;63176;52.678;13.250;2022-12-10T01:06:28;0.10;99.90
7290;DHT22;63176;52.678;13.250;2022-12-10T01:08:57;0.10;99.90
7290;DHT22;63176;52.678;13.250;2022-12-10T01:11:26;0.10;99.90
7290;DHT22;63176;52.678;13.250;2022-12-10T01:13:53;0.10;99.90
7290;DHT22;63176;52.678;13.250;2022-12-10T01:16:22;0.10;99.90
7290;DHT22;63176;52.678;13.250;2022-12-10T01:18:49;0.10;99.90
7290;DHT22;63176;52.678;13.250;2022-12-10T01:21:17;0.10;99.90
7290;DHT22;63176;52.678;13.250;2022-12-10T01:23:45;0.10;99.90
7290;DHT22;63176;52.678;13.250;2022-12-10T01:26:14;0.10;99.90
7290;DHT22;63176;52.678;13.250;2022-12-10T01:28:41;0.30;99.90
7290;DHT22;63176;52.678;13.250;2022-12-10T01:31:10;0.10;99.90
7290;DHT22;63176;52.678;13.250;2022-12-10T01:33:36;0.10;99.90
7290;DHT22;63176;52.678;13.250;2022-12-10T01:36:11;0.10;99.90
7290;DHT22;63176;52.678;13.250;2022-12-10T01:38:38;0.00;99.90
7290;DHT22;63176;52.678;13.250;2022-12-10T01:41:04;0.10;99.90
7290;DHT22;63176;52.678;13.250;2022-12-10T01:43:50;0.10;99.90
7290;DHT22;63176;52.678;13.250;2022-12-10T01:46:17;0.00;99.90
7290;DHT22;63176;52.678;13.250;2022-12-10T01:48:43;0.10;99.90
7290;DHT22;63176;52.678;13.250;2022-12-10T01:51:10;0.10;99.90
7290;DHT22;63176;52.678;13.250;2022-12-10T01:53:36;0.10;99.90
7290;DHT22;63176;52.678;13.250;2022-12-10T01:56:02;0.10;99.90
7290;DHT22;63176;52.678;13.250;2022-12-10T01:58:27;0.10;99.90
7290;DHT22;63176;52.678;13.250;2022-12-10T02:09:42;0.10;99.90
7290;DHT22;63176;52.678;13.250;2022-12-10T02:14:54;0.20;99.90
7290;DHT22;63176;52.678;13.250;2022-12-10T02:17:36;0.00;99.90
7290;DHT22;63176;52.678;13.250;2022-12-10T02:22:39;0.00;99.90
7290;DHT22;63176;52.678;13.250;2022-12-10T02:25:08;0.10;99.90
7290;DHT22;63176;52.678;13.250;2022-12-10T02:27:54;0.10;99.90
7290;DHT22;63176;52.678;13.250;2022-12-10T02:30:21;0.10;99.90
7290;DHT22;63176;52.678;13.250;2022-12-10T02:32:48;0.10;99.90
7290;DHT22;63176;52.678;13.250;2022-12-10T02:35:22;0.10;99.90
7290;DHT22;63176;52.678;13.250;2022-12-10T02:38:14;0.20;99.90
7290;DHT22;63176;52.678;13.250;2022-12-10T02:40:46;0.10;99.90
7290;DHT22;63176;52.678;13.250;2022-12-10T02:43:13;0.10;99.90
7290;DHT22;63176;52.678;13.250;2022-12-10T02:45:41;0.10;99.90
7290;DHT22;63176;52.678;13.250;2022-12-10T02:48:07;0.10;99.90
7290;DHT22;63176;52.678;13.250;2022-12-10T02:50:34;0.10;99.90
7290;DHT22;63176;52.678;13.250;2022-12-10T02:53:00;0.10;99.90
7290;DHT22;63176;52.678;13.250;2022-12-10T02:55:25;0.10;99.90
7290;DHT22;63176;52.678;13.250;2022-12-10T02:58:34;0.10;99.90
7290;DHT22;63176;52.678;13.250;2022-12-10T03:01:10;0.10;99.90
7290;DHT22;63176;52.678;13.250;2022-12-10T03:04:00;0.10;99.90
7290;DHT22;63176;52.678;13.250;2022-12-10T03:06:31;0.10;99.90
7290;DHT22;63176;52.678;13.250;2022-12-10T03:11:29;0.10;99.90
7290;DHT22;63176;52.678;13.250;2022-12-10T03:14:10;0.10;99.90
7290;DHT22;63176;52.678;13.250;2022-12-10T03:16:50;0.10;99.90
7290;DHT22;63176;52.678;13.250;2022-12-10T03:19:18;0.10;99.90
7290;DHT22;63176;52.678;13.250;2022-12-10T03:21:46;0.10;99.90
7290;DHT22;63176;52.678;13.250;2022-12-10T03:24:13;0.10;99.90
7290;DHT22;63176;52.678;13.250;2022-12-10T03:26:42;0.10;99.90
7290;DHT22;63176;52.678;13.250;2022-12-10T03:29:12;0.40;99.90
7290;DHT22;63176;52.678;13.250;2022-12-10T03:31:41;0.10;99.90
7290;DHT22;63176;52.678;13.250;2022-12-10T03:34:08;0.10;99.90
7290;DHT22;63176;52.678;13.250;2022-12-10T03:36:35;0.10;99.90
7290;DHT22;63176;52.678;13.250;2022-12-10T03:39:01;0.10;99.90
7290;DHT22;63176;52.678;13.250;2022-12-10T03:41:27;0.10;99.90
7290;DHT22;63176;52.678;13.250;2022-12-10T03:43:54;0.00;99.90
7290;DHT22;63176;52.678;13.250;2022-12-10T03:46:21;0.00;99.90
7290;DHT22;63176;52.678;13.250;2022-12-10T03:48:47;0.10;99.90
7290;DHT22;63176;52.678;13.250;2022-12-10T03:51:13;0.10;99.90
7290;DHT22;63176;52.678;13.250;2022-12-10T03:53:38;0.00;99.90
7290;DHT22;63176;52.678;13.250;2022-12-10T03:56:04;0.00;99.90
7290;DHT22;63176;52.678;13.250;2022-12-10T03:58:29;0.00;99.90
7290;DHT22;63176;52.678;13.250;2022-12-10T04:00:55;0.10;99.90
7290;DHT22;63176;52.678;13.250;2022-12-10T04:03:21;0.00;99.90
7290;DHT22;63176;52.678;13.250;2022-12-10T04:05:46;0.10;99.90
7290;DHT22;63176;52.678;13.250;2022-12-10T04:08:12;0.30;99.90
7290;DHT22;63176;52.678;13.250;2022-12-10T04:10:38;0.10;99.90
7290;DHT22;63176;52.678;13.250;2022-12-10T04:13:04;0.10;99.90
7290;DHT22;63176;52.678;13.250;2022-12-10T04:15:48;0.10;99.90
7290;DHT22;63176;52.678;13.250;2022-12-10T04:18:32;0.20;99.90
7290;DHT22;63176;52.678;13.250;2022-12-10T04:20:58;0.10;99.90
7290;DHT22;63176;52.678;13.250;2022-12-10T04:23:42;0.10;99.90
7290;DHT22;63176;52.678;13.250;2022-12-10T04:26:27;0.10;99.90
7290;DHT22;63176;52.678;13.250;2022-12-10T04:29:11;0.20;99.90
7290;DHT22;63176;52.678;13.250;2022-12-10T04:31:37;0.10;99.90
7290;DHT22;63176;52.678;13.250;2022-12-10T04:34:02;0.10;99.90
7290;DHT22;63176;52.678;13.250;2022-12-10T04:36:28;0.00;99.90
7290;DHT22;63176;52.678;13.250;2022-12-10T04:38:54;0.10;99.90
7290;DHT22;63176;52.678;13.250;2022-12-10T04:41:19;0.10;99.90
7290;DHT22;63176;52.678;13.250;2022-12-10T04:43:45;0.30;99.90
7290;DHT22;63176;52.678;13.250;2022-12-10T04:46:11;0.10;99.90
7290;DHT22;63176;52.678;13.250;2022-12-10T04:48:37;0.10;99.90
7290;DHT22;63176;52.678;13.250;2022-12-10T04:51:03;0.10;99.90
7290;DHT22;63176;52.678;13.250;2022-12-10T04:53:28;0.10;99.90
7290;DHT22;63176;52.678;13.250;2022-12-10T04:55:54;0.10;99.90
7290;DHT22;63176;52.678;13.250;2022-12-10T04:58:20;0.20;99.90
7290;DHT22;63176;52.678;13.250;2022-12-10T05:00:45;0.20;99.90
7290;DHT22;63176;52.678;13.250;2022-12-10T05:03:11;0.20;99.90
7290;DHT22;63176;52.678;13.250;2022-12-10T05:05:36;0.20;99.90
7290;DHT22;63176;52.678;13.250;2022-12-10T05:08:02;0.20;99.90
7290;DHT22;63176;52.678;13.250;2022-12-10T05:10:28;0.30;99.90
7290;DHT22;63176;52.678;13.250;2022-12-10T05:12:53;0.50;99.90
7290;DHT22;63176;52.678;13.250;2022-12-10T05:15:19;0.20;99.90
7290;DHT22;63176;52.678;13.250;2022-12-10T05:17:45;0.20;99.90
7290;DHT22;63176;52.678;13.250;2022-12-10T05:20:10;0.20;99.90
7290;DHT22;63176;52.678;13.250;2022-12-10T05:22:36;0.20;99.90
7290;DHT22;63176;52.678;13.250;2022-12-10T05:25:20;0.20;99.90
7290;DHT22;63176;52.678;13.250;2022-12-10T05:27:46;0.20;99.90
7290;DHT22;63176;52.678;13.250;2022-12-10T05:30:12;0.10;99.90
7290;DHT22;63176;52.678;13.250;2022-12-10T05:32:37;0.10;99.90
7290;DHT22;63176;52.678;13.250;2022-12-10T05:35:04;0.10;99.90
7290;DHT22;63176;52.678;13.250;2022-12-10T05:37:29;0.10;99.90
7290;DHT22;63176;52.678;13.250;2022-12-10T05:39:55;0.10;99.90
7290;DHT22;63176;52.678;13.250;2022-12-10T05:42:21;0.10;99.90
7290;DHT22;63176;52.678;13.250;2022-12-10T05:44:46;0.10;99.90
7290;DHT22;63176;52.678;13.250;2022-12-10T05:47:12;0.10;99.90
7290;DHT22;63176;52.678;13.250;2022-12-10T05:49:37;0.30;99.90
7290;DHT22;63176;52.678;13.250;2022-12-10T05:52:03;0.20;99.90
7290;DHT22;63176;52.678;13.250;2022-12-10T05:54:29;0.20;99.90
7290;DHT22;63176;52.678;13.250;2022-12-10T05:56:54;0.30;99.90
7290;DHT22;63176;52.678;13.250;2022-12-10T05:59:20;0.20;99.90
7290;DHT22;63176;52.678;13.250;2022-12-10T06:01:45;0.10;99.90
7290;DHT22;63176;52.678;13.250;2022-12-10T06:04:11;0.10;99.90
7290;DHT22;63176;52.678;13.250;2022-12-10T06:06:38;0.20;99.90
7290;DHT22;63176;52.678;13.250;2022-12-10T06:09:06;0.20;99.90
7290;DHT22;63176;52.678;13.250;2022-12-10T06:11:32;0.30;99.90
7290;DHT22;63176;52.678;13.250;2022-12-10T06:13:58;0.10;99.90
7290;DHT22;63176;52.678;13.250;2022-12-10T06:16:25;0.00;99.90
7290;DHT22;63176;52.678;13.250;2022-12-10T06:18:51;0.00;99.90
7290;DHT22;63176;52.678;13.250;2022-12-10T06:21:18;0.00;99.90
7290;DHT22;63176;52.678;13.250;2022-12-10T06:23:45;0.00;99.90
7290;DHT22;63176;52.678;13.250;2022-12-10T06:26:16;0.00;99.90
7290;DHT22;63176;52.678;13.250;2022-12-10T06:28:46;0.00;99.90
7290;DHT22;63176;52.678;13.250;2022-12-10T06:31:13;0.00;99.90
7290;DHT22;63176;52.678;13.250;2022-12-10T06:33:38;0.00;99.90
7290;DHT22;63176;52.678;13.250;2022-12-10T06:36:06;0.00;99.90
7290;DHT22;63176;52.678;13.250;2022-12-10T06:38:33;0.10;99.90
7290;DHT22;63176;52.678;13.250;2022-12-10T06:40:59;0.20;99.90
7290;DHT22;63176;52.678;13.250;2022-12-10T06:43:28;0.00;99.90
7290;DHT22;63176;52.678;13.250;2022-12-10T06:45:54;0.00;99.90
7290;DHT22;63176;52.678;13.250;2022-12-10T06:48:20;0.00;99.90
7290;DHT22;63176;52.678;13.250;2022-12-10T06:50:45;0.00;99.90
7290;DHT22;63176;52.678;13.250;2022-12-10T06:53:11;0.00;99.90
7290;DHT22;63176;52.678;13.250;2022-12-10T06:55:37;0.10;99.90
7290;DHT22;63176;52.678;13.250;2022-12-10T06:58:04;0.00;99.90
7290;DHT22;63176;52.678;13.250;2022-12-10T07:00:29;0.10;99.90
7290;DHT22;63176;52.678;13.250;2022-12-10T07:02:55;0.00;99.90
7290;DHT22;63176;52.678;13.250;2022-12-10T07:05:20;0.00;99.90
7290;DHT22;63176;52.678;13.250;2022-12-10T07:07:46;0.00;99.90
7290;DHT22;63176;52.678;13.250;2022-12-10T07:10:12;0.00;99.90
7290;DHT22;63176;52.678;13.250;2022-12-10T07:12:37;0.00;99.90
7290;DHT22;63176;52.678;13.250;2022-12-10T07:15:04;0.10;99.90
7290;DHT22;63176;52.678;13.250;2022-12-10T07:17:29;0.00;99.90
7290;DHT22;63176;52.678;13.250;2022-12-10T07:19:55;0.00;99.90
7290;DHT22;63176;52.678;13.250;2022-12-10T07:22:21;0.00;99.90
7290;DHT22;63176;52.678;13.250;2022-12-10T07:24:48;0.00;99.90
7290;DHT22;63176;52.678;13.250;2022-12-10T07:27:14;0.00;99.90
7290;DHT22;63176;52.678;13.250;2022-12-10T07:29:39;0.00;99.90
7290;DHT22;63176;52.678;13.250;2022-12-10T07:32:05;0.00;99.90
7290;DHT22;63176;52.678;13.250;2022-12-10T07:34:32;0.10;99.90
7290;DHT22;63176;52.678;13.250;2022-12-10T07:36:57;0.00;99.90
7290;DHT22;63176;52.678;13.250;2022-12-10T07:39:23;0.00;99.90
7290;DHT22;63176;52.678;13.250;2022-12-10T07:41:50;0.00;99.90
7290;DHT22;63176;52.678;13.250;2022-12-10T07:44:21;0.00;99.90
7290;DHT22;63176;52.678;13.250;2022-12-10T07:46:49;-0.10;99.90
7290;DHT22;63176;52.678;13.250;2022-12-10T07:49:15;-0.10;99.90
7290;DHT22;63176;52.678;13.250;2022-12-10T07:51:44;0.10;99.90
7290;DHT22;63176;52.678;13.250;2022-12-10T07:54:11;-0.10;99.90
7290;DHT22;63176;52.678;13.250;2022-12-10T07:56:37;-0.10;99.90
7290;DHT22;63176;52.678;13.250;2022-12-10T07:59:02;-0.10;99.90
7290;DHT22;63176;52.678;13.250;2022-12-10T08:01:28;-0.10;99.90
7290;DHT22;63176;52.678;13.250;2022-12-10T08:03:55;-0.10;99.90
7290;DHT22;63176;52.678;13.250;2022-12-10T08:06:24;0.10;99.90
7290;DHT22;63176;52.678;13.250;2022-12-10T08:08:51;-0.10;99.90
7290;DHT22;63176;52.678;13.250;2022-12-10T08:11:18;-0.10;99.90
7290;DHT22;63176;52.678;13.250;2022-12-10T08:13:45;0.00;99.90
7290;DHT22;63176;52.678;13.250;2022-12-10T08:16:14;0.10;99.90
7290;DHT22;63176;52.678;13.250;2022-12-10T08:18:41;0.00;99.90
7290;DHT22;63176;52.678;13.250;2022-12-10T08:21:10;0.00;99.90
7290;DHT22;63176;52.678;13.250;2022-12-10T08:23:36;0.30;99.90
7290;DHT22;63176;52.678;13.250;2022-12-10T08:26:10;0.20;99.90
7290;DHT22;63176;52.678;13.250;2022-12-10T08:28:36;0.10;99.90
7290;DHT22;63176;52.678;13.250;2022-12-10T08:31:03;0.20;99.90
7290;DHT22;63176;52.678;13.250;2022-12-10T08:33:29;0.10;99.90
7290;DHT22;63176;52.678;13.250;2022-12-10T08:35:58;0.10;99.90
7290;DHT22;63176;52.678;13.250;2022-12-10T08:38:25;0.20;99.90
7290;DHT22;63176;52.678;13.250;2022-12-10T08:40:51;0.20;99.90
7290;DHT22;63176;52.678;13.250;2022-12-10T08:43:16;0.10;99.90
7290;DHT22;63176;52.678;13.250;2022-12-10T08:45:42;0.20;99.90
7290;DHT22;63176;52.678;13.250;2022-12-10T08:48:07;0.20;99.90
7290;DHT22;63176;52.678;13.250;2022-12-10T08:50:33;0.20;99.90
7290;DHT22;63176;52.678;13.250;2022-12-10T08:52:59;0.20;99.90
7290;DHT22;63176;52.678;13.250;2022-12-10T08:55:25;0.20;99.90
7290;DHT22;63176;52.678;13.250;2022-12-10T08:57:51;0.20;99.90
7290;DHT22;63176;52.678;13.250;2022-12-10T09:00:16;0.20;99.90
7290;DHT22;63176;52.678;13.250;2022-12-10T09:02:44;0.30;99.90
7290;DHT22;63176;52.678;13.250;2022-12-10T09:05:10;0.30;99.90
7290;DHT22;63176;52.678;13.250;2022-12-10T09:07:35;0.30;99.90
7290;DHT22;63176;52.678;13.250;2022-12-10T09:10:01;0.30;99.90
7290;DHT22;63176;52.678;13.250;2022-12-10T09:12:27;0.30;99.90
7290;DHT22;63176;52.678;13.250;2022-12-10T09:14:53;0.40;99.90
7290;DHT22;63176;52.678;13.250;2022-12-10T09:17:18;0.40;99.90
7290;DHT22;63176;52.678;13.250;2022-12-10T09:19:44;0.40;99.90
7290;DHT22;63176;52.678;13.250;2022-12-10T09:22:10;0.50;99.90
7290;DHT22;63176;52.678;13.250;2022-12-10T09:24:35;0.80;99.90
7290;DHT22;63176;52.678;13.250;2022-12-10T09:27:02;0.60;99.90
7290;DHT22;63176;52.678;13.250;2022-12-10T09:29:28;0.60;99.90
7290;DHT22;63176;52.678;13.250;2022-12-10T09:31:53;0.60;99.90
7290;DHT22;63176;52.678;13.250;2022-12-10T09:34:20;0.70;99.90
7290;DHT22;63176;52.678;13.250;2022-12-10T09:36:46;0.80;99.90
7290;DHT22;63176;52.678;13.250;2022-12-10T09:39:12;0.60;99.90
7290;DHT22;63176;52.678;13.250;2022-12-10T09:42:03;0.60;99.90
7290;DHT22;63176;52.678;13.250;2022-12-10T09:44:53;0.60;99.90
7290;DHT22;63176;52.678;13.250;2022-12-10T09:47:26;0.50;99.90
7290;DHT22;63176;52.678;13.250;2022-12-10T09:52:43;0.60;99.90
7290;DHT22;63176;52.678;13.250;2022-12-10T09:55:15;0.50;99.90
7290;DHT22;63176;52.678;13.250;2022-12-10T09:57:48;0.50;99.90
7290;DHT22;63176;52.678;13.250;2022-12-10T10:02:49;0.60;99.90
7290;DHT22;63176;52.678;13.250;2022-12-10T10:05:25;0.50;99.90
7290;DHT22;63176;52.678;13.250;2022-12-10T10:07:54;0.60;99.90
7290;DHT22;63176;52.678;13.250;2022-12-10T10:10:30;0.60;99.90
7290;DHT22;63176;52.678;13.250;2022-12-10T10:13:14;0.60;99.90
7290;DHT22;63176;52.678;13.250;2022-12-10T10:15:44;0.60;99.90
7290;DHT22;63176;52.678;13.250;2022-12-10T10:18:36;0.70;99.90
7290;DHT22;63176;52.678;13.250;2022-12-10T10:21:05;0.70;99.90
7290;DHT22;63176;52.678;13.250;2022-12-10T10:23:32;0.70;99.90
7290;DHT22;63176;52.678;13.250;2022-12-10T10:25:58;0.70;99.90
7290;DHT22;63176;52.678;13.250;2022-12-10T10:28:24;0.80;99.90
7290;DHT22;63176;52.678;13.250;2022-12-10T10:30:52;0.80;99.90
7290;DHT22;63176;52.678;13.250;2022-12-10T10:33:18;0.80;99.90
7290;DHT22;63176;52.678;13.250;2022-12-10T10:35:54;0.80;99.90
7290;DHT22;63176;52.678;13.250;2022-12-10T10:38:26;0.90;99.90
7290;DHT22;63176;52.678;13.250;2022-12-10T10:40:55;0.80;99.90
7290;DHT22;63176;52.678;13.250;2022-12-10T10:43:25;0.80;99.90
7290;DHT22;63176;52.678;13.250;2022-12-10T10:45:54;0.90;99.90
7290;DHT22;63176;52.678;13.250;2022-12-10T10:48:24;0.90;99.90
7290;DHT22;63176;52.678;13.250;2022-12-10T10:51:05;0.80;99.90
7290;DHT22;63176;52.678;13.250;2022-12-10T10:53:41;1.10;99.90
7290;DHT22;63176;52.678;13.250;2022-12-10T10:56:17;0.90;99.90
7290;DHT22;63176;52.678;13.250;2022-12-10T10:59:05;0.90;99.90
7290;DHT22;63176;52.678;13.250;2022-12-10T11:01:47;0.90;99.90
7290;DHT22;63176;52.678;13.250;2022-12-10T11:04:15;1.00;99.90
7290;DHT22;63176;52.678;13.250;2022-12-10T11:06:42;1.10;99.90
7290;DHT22;63176;52.678;13.250;2022-12-10T11:09:08;1.00;99.90
7290;DHT22;63176;52.678;13.250;2022-12-10T11:11:41;1.10;99.90
7290;DHT22;63176;52.678;13.250;2022-12-10T11:14:24;1.10;99.90
7290;DHT22;63176;52.678;13.250;2022-12-10T11:16:51;1.10;99.90
7290;DHT22;63176;52.678;13.250;2022-12-10T11:19:24;1.10;99.90
7290;DHT22;63176;52.678;13.250;2022-12-10T11:21:52;1.30;99.90
7290;DHT22;63176;52.678;13.250;2022-12-10T11:24:19;1.20;99.90
7290;DHT22;63176;52.678;13.250;2022-12-10T11:26:57;1.20;99.90
7290;DHT22;63176;52.678;13.250;2022-12-10T11:29:53;1.30;99.90
7290;DHT22;63176;52.678;13.250;2022-12-10T11:35:48;1.30;99.90
7290;DHT22;63176;52.678;13.250;2022-12-10T11:38:28;1.30;99.90
7290;DHT22;63176;52.678;13.250;2022-12-10T11:51:44;1.30;99.90
7290;DHT22;63176;52.678;13.250;2022-12-10T11:54:43;1.20;99.90
7290;DHT22;63176;52.678;13.250;2022-12-10T11:57:30;1.30;99.90
7290;DHT22;63176;52.678;13.250;2022-12-10T12:03:10;1.20;99.90
7290;DHT22;63176;52.678;13.250;2022-12-10T12:11:23;1.20;99.90
7290;DHT22;63176;52.678;13.250;2022-12-10T12:14:07;1.10;99.90
7290;DHT22;63176;52.678;13.250;2022-12-10T12:16:47;1.10;99.90
7290;DHT22;63176;52.678;13.250;2022-12-10T12:19:19;1.20;99.90
7290;DHT22;63176;52.678;13.250;2022-12-10T12:21:49;1.30;99.90
7290;DHT22;63176;52.678;13.250;2022-12-10T12:24:34;1.20;99.90
7290;DHT22;63176;52.678;13.250;2022-12-10T12:27:19;1.10;99.90
7290;DHT22;63176;52.678;13.250;2022-12-10T12:30:02;1.20;99.90
7290;DHT22;63176;52.678;13.250;2022-12-10T12:32:35;1.20;99.90
7290;DHT22;63176;52.678;13.250;2022-12-10T12:38:14;1.20;99.90
7290;DHT22;63176;52.678;13.250;2022-12-10T12:40:56;1.10;99.90
7290;DHT22;63176;52.678;13.250;2022-12-10T12:43:51;1.10;99.90
7290;DHT22;63176;52.678;13.250;2022-12-10T12:46:33;1.10;99.90
7290;DHT22;63176;52.678;13.250;2022-12-10T12:49:48;1.10;99.90
7290;DHT22;63176;52.678;13.250;2022-12-10T12:51:51;1.20;99.90
7290;DHT22;63176;52.678;13.250;2022-12-10T12:54:19;1.00;99.90
7290;DHT22;63176;52.678;13.250;2022-12-10T13:04:40;1.00;99.90
7290;DHT22;63176;52.678;13.250;2022-12-10T13:09:45;1.10;99.90
7290;DHT22;63176;52.678;13.250;2022-12-10T13:12:27;1.10;99.90
7290;DHT22;63176;52.678;13.250;2022-12-10T13:18:42;1.10;99.90
7290;DHT22;63176;52.678;13.250;2022-12-10T13:28:49;1.00;99.90
7290;DHT22;63176;52.678;13.250;2022-12-10T13:41:30;1.00;99.90
7290;DHT22;63176;52.678;13.250;2022-12-10T13:44:45;1.00;99.90
7290;DHT22;63176;52.678;13.250;2022-12-10T13:49:52;1.00;99.90
7290;DHT22;63176;52.678;13.250;2022-12-10T13:52:26;1.00;99.90
7290;DHT22;63176;52.678;13.250;2022-12-10T13:57:43;1.00;99.90
7290;DHT22;63176;52.678;13.250;2022-12-10T14:00:19;1.10;99.90
7290;DHT22;63176;52.678;13.250;2022-12-10T14:03:29;1.10;99.90
7290;DHT22;63176;52.678;13.250;2022-12-10T14:08:32;1.20;99.90
7290;DHT22;63176;52.678;13.250;2022-12-10T14:10:59;1.10;99.90
7290;DHT22;63176;52.678;13.250;2022-12-10T14:13:33;1.10;99.90
7290;DHT22;63176;52.678;13.250;2022-12-10T14:16:02;1.10;99.90
7290;DHT22;63176;52.678;13.250;2022-12-10T14:18:30;1.10;99.90
7290;DHT22;63176;52.678;13.250;2022-12-10T14:20:56;1.00;99.90
7290;DHT22;63176;52.678;13.250;2022-12-10T14:23:28;0.90;99.90
7290;DHT22;63176;52.678;13.250;2022-12-10T14:26:16;1.00;99.90
7290;DHT22;63176;52.678;13.250;2022-12-10T14:28:45;0.90;99.90
7290;DHT22;63176;52.678;13.250;2022-12-10T14:31:42;0.90;99.90
7290;DHT22;63176;52.678;13.250;2022-12-10T14:34:14;0.80;99.90
7290;DHT22;63176;52.678;13.250;2022-12-10T14:36:48;0.80;99.90
7290;DHT22;63176;52.678;13.250;2022-12-10T14:39:17;0.60;99.90
7290;DHT22;63176;52.678;13.250;2022-12-10T14:41:43;0.70;99.90
7290;DHT22;63176;52.678;13.250;2022-12-10T14:44:14;0.70;99.90
7290;DHT22;63176;52.678;13.250;2022-12-10T14:46:40;0.70;99.90
7290;DHT22;63176;52.678;13.250;2022-12-10T14:49:12;0.70;99.90
7290;DHT22;63176;52.678;13.250;2022-12-10T14:51:40;0.90;99.90
7290;DHT22;63176;52.678;13.250;2022-12-10T14:54:23;0.60;99.90
7290;DHT22;63176;52.678;13.250;2022-12-10T14:56:50;0.60;99.90
7290;DHT22;63176;52.678;13.250;2022-12-10T14:59:21;0.60;99.90
7290;DHT22;63176;52.678;13.250;2022-12-10T15:01:54;0.60;99.90
7290;DHT22;63176;52.678;13.250;2022-12-10T15:04:22;0.60;99.90
7290;DHT22;63176;52.678;13.250;2022-12-10T15:06:50;0.50;99.90
7290;DHT22;63176;52.678;13.250;2022-12-10T15:09:19;0.60;99.90
7290;DHT22;63176;52.678;13.250;2022-12-10T15:11:51;0.60;99.90
7290;DHT22;63176;52.678;13.250;2022-12-10T15:14:19;0.80;99.90
7290;DHT22;63176;52.678;13.250;2022-12-10T15:16:47;0.70;99.90
7290;DHT22;63176;52.678;13.250;2022-12-10T15:19:30;0.70;99.90
7290;DHT22;63176;52.678;13.250;2022-12-10T15:22:21;0.50;99.90
7290;DHT22;63176;52.678;13.250;2022-12-10T15:24:47;0.50;99.90
7290;DHT22;63176;52.678;13.250;2022-12-10T15:27:18;0.50;99.90
7290;DHT22;63176;52.678;13.250;2022-12-10T15:29:44;0.70;99.90
7290;DHT22;63176;52.678;13.250;2022-12-10T15:34:49;0.50;99.90
7290;DHT22;63176;52.678;13.250;2022-12-10T15:37:21;0.60;99.90
7290;DHT22;63176;52.678;13.250;2022-12-10T15:39:54;0.50;99.90
7290;DHT22;63176;52.678;13.250;2022-12-10T15:42:39;0.40;99.90
7290;DHT22;63176;52.678;13.250;2022-12-10T15:45:37;0.40;99.90
7290;DHT22;63176;52.678;13.250;2022-12-10T15:48:11;0.40;99.90
7290;DHT22;63176;52.678;13.250;2022-12-10T15:50:39;0.40;99.90
7290;DHT22;63176;52.678;13.250;2022-12-10T15:53:12;0.60;99.90
7290;DHT22;63176;52.678;13.250;2022-12-10T15:55:39;0.40;99.90
7290;DHT22;63176;52.678;13.250;2022-12-10T15:58:10;0.40;99.90
7290;DHT22;63176;52.678;13.250;2022-12-10T16:00:37;0.40;99.90
7290;DHT22;63176;52.678;13.250;2022-12-10T16:03:05;0.50;99.90
7290;DHT22;63176;52.678;13.250;2022-12-10T16:05:37;0.60;99.90
7290;DHT22;63176;52.678;13.250;2022-12-10T16:08:19;0.40;99.90
7290;DHT22;63176;52.678;13.250;2022-12-10T16:10:46;0.40;99.90
7290;DHT22;63176;52.678;13.250;2022-12-10T16:13:34;0.40;99.90
7290;DHT22;63176;52.678;13.250;2022-12-10T16:16:07;0.30;99.90
7290;DHT22;63176;52.678;13.250;2022-12-10T16:18:33;0.30;99.90
7290;DHT22;63176;52.678;13.250;2022-12-10T16:21:01;0.30;99.90
7290;DHT22;63176;52.678;13.250;2022-12-10T16:23:27;0.30;99.90
7290;DHT22;63176;52.678;13.250;2022-12-10T16:25:52;0.30;99.90
7290;DHT22;63176;52.678;13.250;2022-12-10T16:28:20;0.30;99.90
7290;DHT22;63176;52.678;13.250;2022-12-10T16:30:51;0.30;99.90
7290;DHT22;63176;52.678;13.250;2022-12-10T16:33:18;0.30;99.90
7290;DHT22;63176;52.678;13.250;2022-12-10T16:35:45;0.30;99.90
7290;DHT22;63176;52.678;13.250;2022-12-10T16:38:11;0.20;99.90
7290;DHT22;63176;52.678;13.250;2022-12-10T16:40:39;0.20;99.90
7290;DHT22;63176;52.678;13.250;2022-12-10T16:43:05;0.20;99.90
7290;DHT22;63176;52.678;13.250;2022-12-10T16:45:35;0.40;99.90
7290;DHT22;63176;52.678;13.250;2022-12-10T16:48:02;0.20;99.90
7290;DHT22;63176;52.678;13.250;2022-12-10T16:50:28;0.20;99.90
7290;DHT22;63176;52.678;13.250;2022-12-10T16:52:55;0.20;99.90
7290;DHT22;63176;52.678;13.250;2022-12-10T16:55:23;0.10;99.90
7290;DHT22;63176;52.678;13.250;2022-12-10T16:57:49;0.10;99.90
7290;DHT22;63176;52.678;13.250;2022-12-10T17:00:21;0.00;99.90
7290;DHT22;63176;52.678;13.250;2022-12-10T17:02:48;0.00;99.90
7290;DHT22;63176;52.678;13.250;2022-12-10T17:05:24;0.20;99.90
7290;DHT22;63176;52.678;13.250;2022-12-10T17:07:52;0.00;99.90
7290;DHT22;63176;52.678;13.250;2022-12-10T17:10:18;0.00;99.90
7290;DHT22;63176;52.678;13.250;2022-12-10T17:13:04;0.10;99.90
7290;DHT22;63176;52.678;13.250;2022-12-10T17:15:29;0.30;99.90
7290;DHT22;63176;52.678;13.250;2022-12-10T17:17:55;0.00;99.90
7290;DHT22;63176;52.678;13.250;2022-12-10T17:20:20;0.00;99.90
7290;DHT22;63176;52.678;13.250;2022-12-10T17:22:46;0.00;99.90
7290;DHT22;63176;52.678;13.250;2022-12-10T17:25:12;0.00;99.90
7290;DHT22;63176;52.678;13.250;2022-12-10T17:27:38;0.00;99.90
7290;DHT22;63176;52.678;13.250;2022-12-10T17:30:04;0.00;99.90
7290;DHT22;63176;52.678;13.250;2022-12-10T17:32:30;0.00;99.90